sensor_id;sensor_type;location;lat;lon;timestamp;P1;durP1;ratioP1;P2;durP2;ratioP2
27422;SDS011;14878;50.778;0.258;2022-09-09T00:00:18;31.23;;;4.25;;
27422;SDS011;14878;50.778;0.258;2022-09-09T00:02:33;25.02;;;4.43;;
27422;SDS011;14878;50.778;0.258;2022-09-09T00:03:40;23.95;;;4.45;;
27422;SDS011;14878;50.778;0.258;2022-09-09T00:06:07;23.75;;;4.47;;
27422;SDS011;14878;50.778;0.258;2022-09-09T00:07:23;31.73;;;5.05;;
27422;SDS011;14878;50.778;0.258;2022-09-09T00:08:48;23.55;;;3.95;;
27422;SDS011;14878;50.778;0.258;2022-09-09T00:10:14;26.13;;;4.03;;
27422;SDS011;14878;50.778;0.258;2022-09-09T00:11:19;24.25;;;4.50;;
27422;SDS011;14878;50.778;0.258;2022-09-09T00:13:51;22.58;;;4.88;;
27422;SDS011;14878;50.778;0.258;2022-09-09T00:14:56;29.08;;;4.00;;
27422;SDS011;14878;50.778;0.258;2022-09-09T00:16:21;31.43;;;4.60;;
27422;SDS011;14878;50.778;0.258;2022-09-09T00:20:43;28.73;;;4.18;;
27422;SDS011;14878;50.778;0.258;2022-09-09T00:21:34;25.70;;;4.40;;
27422;SDS011;14878;50.778;0.258;2022-09-09T00:22:36;26.50;;;4.32;;
27422;SDS011;14878;50.778;0.258;2022-09-09T00:23:47;26.73;;;4.32;;
27422;SDS011;14878;50.778;0.258;2022-09-09T00:24:56;25.67;;;4.18;;
27422;SDS011;14878;50.778;0.258;2022-09-09T00:27:46;28.17;;;5.40;;
27422;SDS011;14878;50.778;0.258;2022-09-09T00:29:05;25.85;;;4.63;;
27422;SDS011;14878;50.778;0.258;2022-09-09T00:30:20;27.95;;;4.70;;
27422;SDS011;14878;50.778;0.258;2022-09-09T00:31:25;33.15;;;4.88;;
27422;SDS011;14878;50.778;0.258;2022-09-09T00:32:29;29.48;;;4.78;;
27422;SDS011;14878;50.778;0.258;2022-09-09T00:33:32;26.17;;;3.97;;
27422;SDS011;14878;50.778;0.258;2022-09-09T00:34:32;22.52;;;4.30;;
27422;SDS011;14878;50.778;0.258;2022-09-09T00:35:34;20.03;;;4.13;;
27422;SDS011;14878;50.778;0.258;2022-09-09T00:36:44;27.63;;;4.78;;
27422;SDS011;14878;50.778;0.258;2022-09-09T00:37:48;33.00;;;5.68;;
27422;SDS011;14878;50.778;0.258;2022-09-09T00:38:55;24.13;;;4.05;;
27422;SDS011;14878;50.778;0.258;2022-09-09T00:40:01;20.27;;;4.10;;
27422;SDS011;14878;50.778;0.258;2022-09-09T00:41:07;26.23;;;4.00;;
27422;SDS011;14878;50.778;0.258;2022-09-09T00:42:25;26.15;;;3.90;;
27422;SDS011;14878;50.778;0.258;2022-09-09T00:43:32;25.50;;;3.97;;
27422;SDS011;14878;50.778;0.258;2022-09-09T00:44:37;22.60;;;3.72;;
27422;SDS011;14878;50.778;0.258;2022-09-09T00:47:50;23.83;;;4.40;;
27422;SDS011;14878;50.778;0.258;2022-09-09T00:52:52;23.70;;;3.90;;
27422;SDS011;14878;50.778;0.258;2022-09-09T00:55:28;18.70;;;3.58;;
27422;SDS011;14878;50.778;0.258;2022-09-09T00:56:37;26.30;;;3.53;;
27422;SDS011;14878;50.778;0.258;2022-09-09T00:57:48;20.25;;;3.45;;
27422;SDS011;14878;50.778;0.258;2022-09-09T01:01:21;16.83;;;3.08;;
27422;SDS011;14878;50.778;0.258;2022-09-09T01:02:36;11.60;;;2.65;;
27422;SDS011;14878;50.778;0.258;2022-09-09T01:03:52;19.50;;;3.20;;
27422;SDS011;14878;50.778;0.258;2022-09-09T01:04:57;17.67;;;3.47;;
27422;SDS011;14878;50.778;0.258;2022-09-09T01:06:13;14.82;;;2.75;;
27422;SDS011;14878;50.778;0.258;2022-09-09T01:07:17;17.83;;;3.25;;
27422;SDS011;14878;50.778;0.258;2022-09-09T01:09:56;18.42;;;3.35;;
27422;SDS011;14878;50.778;0.258;2022-09-09T01:10:58;23.60;;;3.58;;
27422;SDS011;14878;50.778;0.258;2022-09-09T01:13:19;21.80;;;3.22;;
27422;SDS011;14878;50.778;0.258;2022-09-09T01:15:37;22.90;;;3.72;;
27422;SDS011;14878;50.778;0.258;2022-09-09T01:16:41;21.05;;;3.55;;
27422;SDS011;14878;50.778;0.258;2022-09-09T01:18:51;18.63;;;3.40;;
27422;SDS011;14878;50.778;0.258;2022-09-09T01:23:54;17.88;;;3.25;;
27422;SDS011;14878;50.778;0.258;2022-09-09T01:27:04;16.60;;;3.20;;
27422;SDS011;14878;50.778;0.258;2022-09-09T01:28:08;22.77;;;4.25;;
27422;SDS011;14878;50.778;0.258;2022-09-09T01:29:16;23.60;;;4.65;;
27422;SDS011;14878;50.778;0.258;2022-09-09T01:30:18;25.23;;;4.97;;
27422;SDS011;14878;50.778;0.258;2022-09-09T01:31:35;30.45;;;4.70;;
27422;SDS011;14878;50.778;0.258;2022-09-09T01:32:49;30.85;;;4.97;;
27422;SDS011;14878;50.778;0.258;2022-09-09T01:33:53;27.42;;;4.47;;
27422;SDS011;14878;50.778;0.258;2022-09-09T01:34:54;30.75;;;4.00;;
27422;SDS011;14878;50.778;0.258;2022-09-09T01:36:03;26.77;;;3.73;;
27422;SDS011;14878;50.778;0.258;2022-09-09T01:37:11;24.27;;;3.67;;
27422;SDS011;14878;50.778;0.258;2022-09-09T01:38:13;27.50;;;3.83;;
27422;SDS011;14878;50.778;0.258;2022-09-09T01:39:15;20.25;;;3.08;;
27422;SDS011;14878;50.778;0.258;2022-09-09T01:40:15;17.23;;;3.10;;
27422;SDS011;14878;50.778;0.258;2022-09-09T01:41:16;18.95;;;3.10;;
27422;SDS011;14878;50.778;0.258;2022-09-09T01:42:17;12.80;;;2.53;;
27422;SDS011;14878;50.778;0.258;2022-09-09T01:43:21;11.50;;;2.45;;
27422;SDS011;14878;50.778;0.258;2022-09-09T01:44:24;12.43;;;2.80;;
27422;SDS011;14878;50.778;0.258;2022-09-09T01:45:25;13.68;;;2.33;;
27422;SDS011;14878;50.778;0.258;2022-09-09T01:46:26;13.87;;;2.53;;
27422;SDS011;14878;50.778;0.258;2022-09-09T01:47:28;14.13;;;2.90;;
27422;SDS011;14878;50.778;0.258;2022-09-09T01:48:30;14.47;;;3.00;;
27422;SDS011;14878;50.778;0.258;2022-09-09T01:49:33;11.57;;;2.40;;
27422;SDS011;14878;50.778;0.258;2022-09-09T01:50:33;14.68;;;2.92;;
27422;SDS011;14878;50.778;0.258;2022-09-09T01:51:35;10.43;;;2.47;;
27422;SDS011;14878;50.778;0.258;2022-09-09T01:52:39;12.05;;;2.40;;
27422;SDS011;14878;50.778;0.258;2022-09-09T01:53:40;7.60;;;2.10;;
27422;SDS011;14878;50.778;0.258;2022-09-09T01:54:41;12.10;;;2.35;;
27422;SDS011;14878;50.778;0.258;2022-09-09T01:55:44;10.07;;;2.45;;
27422;SDS011;14878;50.778;0.258;2022-09-09T01:57:06;11.15;;;2.20;;
27422;SDS011;14878;50.778;0.258;2022-09-09T02:01:00;9.82;;;2.28;;
27422;SDS011;14878;50.778;0.258;2022-09-09T02:03:08;8.38;;;2.20;;
27422;SDS011;14878;50.778;0.258;2022-09-09T02:05:55;14.57;;;2.85;;
27422;SDS011;14878;50.778;0.258;2022-09-09T02:09:43;9.82;;;2.50;;
27422;SDS011;14878;50.778;0.258;2022-09-09T02:12:08;11.00;;;2.50;;
27422;SDS011;14878;50.778;0.258;2022-09-09T02:13:14;9.57;;;2.17;;
27422;SDS011;14878;50.778;0.258;2022-09-09T02:14:18;8.45;;;2.00;;
27422;SDS011;14878;50.778;0.258;2022-09-09T02:16:42;8.90;;;2.13;;
27422;SDS011;14878;50.778;0.258;2022-09-09T02:17:57;10.13;;;2.07;;
27422;SDS011;14878;50.778;0.258;2022-09-09T02:19:03;9.60;;;2.80;;
27422;SDS011;14878;50.778;0.258;2022-09-09T02:20:12;14.10;;;2.90;;
27422;SDS011;14878;50.778;0.258;2022-09-09T02:21:14;14.02;;;3.17;;
27422;SDS011;14878;50.778;0.258;2022-09-09T02:22:20;10.45;;;2.70;;
27422;SDS011;14878;50.778;0.258;2022-09-09T02:23:24;10.27;;;2.47;;
27422;SDS011;14878;50.778;0.258;2022-09-09T02:24:26;9.30;;;2.30;;
27422;SDS011;14878;50.778;0.258;2022-09-09T02:25:30;11.07;;;2.55;;
27422;SDS011;14878;50.778;0.258;2022-09-09T02:26:31;8.55;;;1.92;;
27422;SDS011;14878;50.778;0.258;2022-09-09T02:27:36;10.05;;;2.95;;
27422;SDS011;14878;50.778;0.258;2022-09-09T02:28:36;7.95;;;2.10;;
27422;SDS011;14878;50.778;0.258;2022-09-09T02:29:40;7.93;;;2.35;;
27422;SDS011;14878;50.778;0.258;2022-09-09T02:30:42;8.80;;;2.58;;
27422;SDS011;14878;50.778;0.258;2022-09-09T02:31:47;8.00;;;2.40;;
27422;SDS011;14878;50.778;0.258;2022-09-09T02:32:52;10.45;;;2.33;;
27422;SDS011;14878;50.778;0.258;2022-09-09T02:34:00;9.75;;;2.70;;
27422;SDS011;14878;50.778;0.258;2022-09-09T02:35:10;11.55;;;2.80;;
27422;SDS011;14878;50.778;0.258;2022-09-09T02:36:14;7.40;;;2.80;;
27422;SDS011;14878;50.778;0.258;2022-09-09T02:37:17;11.23;;;3.45;;
27422;SDS011;14878;50.778;0.258;2022-09-09T02:38:20;13.43;;;3.13;;
27422;SDS011;14878;50.778;0.258;2022-09-09T02:39:22;10.80;;;3.10;;
27422;SDS011;14878;50.778;0.258;2022-09-09T02:40:23;10.43;;;3.10;;
27422;SDS011;14878;50.778;0.258;2022-09-09T02:41:24;9.47;;;3.27;;
27422;SDS011;14878;50.778;0.258;2022-09-09T02:42:28;11.90;;;3.03;;
27422;SDS011;14878;50.778;0.258;2022-09-09T02:43:33;11.88;;;3.38;;
27422;SDS011;14878;50.778;0.258;2022-09-09T02:44:34;10.68;;;3.50;;
27422;SDS011;14878;50.778;0.258;2022-09-09T02:45:47;13.05;;;3.40;;
27422;SDS011;14878;50.778;0.258;2022-09-09T02:47:27;10.20;;;3.30;;
27422;SDS011;14878;50.778;0.258;2022-09-09T02:48:35;11.63;;;3.67;;
27422;SDS011;14878;50.778;0.258;2022-09-09T02:51:08;12.85;;;4.05;;
27422;SDS011;14878;50.778;0.258;2022-09-09T02:52:20;9.90;;;3.70;;
27422;SDS011;14878;50.778;0.258;2022-09-09T02:53:59;14.02;;;4.40;;
27422;SDS011;14878;50.778;0.258;2022-09-09T02:55:06;9.60;;;3.90;;
27422;SDS011;14878;50.778;0.258;2022-09-09T02:56:15;11.35;;;4.38;;
27422;SDS011;14878;50.778;0.258;2022-09-09T02:57:21;12.18;;;3.85;;
27422;SDS011;14878;50.778;0.258;2022-09-09T02:58:27;10.75;;;3.70;;
27422;SDS011;14878;50.778;0.258;2022-09-09T02:59:28;22.00;;;4.57;;
27422;SDS011;14878;50.778;0.258;2022-09-09T03:00:30;10.93;;;4.00;;
27422;SDS011;14878;50.778;0.258;2022-09-09T03:01:31;9.50;;;4.03;;
27422;SDS011;14878;50.778;0.258;2022-09-09T03:02:32;12.77;;;3.53;;
27422;SDS011;14878;50.778;0.258;2022-09-09T03:03:32;15.07;;;4.22;;
27422;SDS011;14878;50.778;0.258;2022-09-09T03:04:33;16.50;;;4.35;;
27422;SDS011;14878;50.778;0.258;2022-09-09T03:05:34;10.23;;;3.87;;
27422;SDS011;14878;50.778;0.258;2022-09-09T03:06:35;13.38;;;4.05;;
27422;SDS011;14878;50.778;0.258;2022-09-09T03:07:36;9.33;;;4.17;;
27422;SDS011;14878;50.778;0.258;2022-09-09T03:08:37;12.30;;;4.10;;
27422;SDS011;14878;50.778;0.258;2022-09-09T03:09:38;14.07;;;3.45;;
27422;SDS011;14878;50.778;0.258;2022-09-09T03:10:39;9.10;;;3.60;;
27422;SDS011;14878;50.778;0.258;2022-09-09T03:11:39;11.23;;;3.97;;
27422;SDS011;14878;50.778;0.258;2022-09-09T03:12:40;10.55;;;3.38;;
27422;SDS011;14878;50.778;0.258;2022-09-09T03:13:41;11.70;;;3.30;;
27422;SDS011;14878;50.778;0.258;2022-09-09T03:14:42;15.10;;;3.88;;
27422;SDS011;14878;50.778;0.258;2022-09-09T03:15:45;12.30;;;3.60;;
27422;SDS011;14878;50.778;0.258;2022-09-09T03:16:48;10.60;;;3.72;;
27422;SDS011;14878;50.778;0.258;2022-09-09T03:17:49;11.40;;;3.70;;
27422;SDS011;14878;50.778;0.258;2022-09-09T03:18:49;12.10;;;3.47;;
27422;SDS011;14878;50.778;0.258;2022-09-09T03:19:50;15.82;;;3.80;;
27422;SDS011;14878;50.778;0.258;2022-09-09T03:20:52;12.02;;;3.38;;
27422;SDS011;14878;50.778;0.258;2022-09-09T03:21:54;9.90;;;3.00;;
27422;SDS011;14878;50.778;0.258;2022-09-09T03:22:55;13.40;;;3.58;;
27422;SDS011;14878;50.778;0.258;2022-09-09T03:23:56;14.77;;;3.75;;
27422;SDS011;14878;50.778;0.258;2022-09-09T03:24:57;12.32;;;3.33;;
27422;SDS011;14878;50.778;0.258;2022-09-09T03:25:58;10.52;;;3.10;;
27422;SDS011;14878;50.778;0.258;2022-09-09T03:26:58;9.23;;;3.33;;
27422;SDS011;14878;50.778;0.258;2022-09-09T03:27:59;13.00;;;3.67;;
27422;SDS011;14878;50.778;0.258;2022-09-09T03:29:00;8.40;;;3.08;;
27422;SDS011;14878;50.778;0.258;2022-09-09T03:30:01;9.27;;;2.80;;
27422;SDS011;14878;50.778;0.258;2022-09-09T03:31:04;9.98;;;2.70;;
27422;SDS011;14878;50.778;0.258;2022-09-09T03:32:05;10.60;;;3.17;;
27422;SDS011;14878;50.778;0.258;2022-09-09T03:33:06;8.38;;;2.67;;
27422;SDS011;14878;50.778;0.258;2022-09-09T03:34:07;10.23;;;2.50;;
27422;SDS011;14878;50.778;0.258;2022-09-09T03:35:08;9.02;;;2.80;;
27422;SDS011;14878;50.778;0.258;2022-09-09T03:36:09;8.55;;;2.70;;
27422;SDS011;14878;50.778;0.258;2022-09-09T03:37:10;9.88;;;3.05;;
27422;SDS011;14878;50.778;0.258;2022-09-09T03:38:11;9.18;;;2.72;;
27422;SDS011;14878;50.778;0.258;2022-09-09T03:39:12;11.05;;;2.70;;
27422;SDS011;14878;50.778;0.258;2022-09-09T03:40:13;10.93;;;2.70;;
27422;SDS011;14878;50.778;0.258;2022-09-09T03:41:14;6.63;;;2.88;;
27422;SDS011;14878;50.778;0.258;2022-09-09T03:42:15;8.77;;;2.80;;
27422;SDS011;14878;50.778;0.258;2022-09-09T03:43:18;8.25;;;2.75;;
27422;SDS011;14878;50.778;0.258;2022-09-09T03:44:20;6.40;;;2.17;;
27422;SDS011;14878;50.778;0.258;2022-09-09T03:45:20;5.37;;;2.10;;
27422;SDS011;14878;50.778;0.258;2022-09-09T03:46:22;10.55;;;2.70;;
27422;SDS011;14878;50.778;0.258;2022-09-09T03:47:24;9.00;;;2.65;;
27422;SDS011;14878;50.778;0.258;2022-09-09T03:48:25;9.82;;;2.45;;
27422;SDS011;14878;50.778;0.258;2022-09-09T03:49:28;12.05;;;2.90;;
27422;SDS011;14878;50.778;0.258;2022-09-09T03:50:28;8.30;;;2.30;;
27422;SDS011;14878;50.778;0.258;2022-09-09T03:51:29;6.30;;;2.37;;
27422;SDS011;14878;50.778;0.258;2022-09-09T03:52:30;9.55;;;2.65;;
27422;SDS011;14878;50.778;0.258;2022-09-09T03:53:31;9.85;;;2.50;;
27422;SDS011;14878;50.778;0.258;2022-09-09T03:54:33;6.38;;;2.47;;
27422;SDS011;14878;50.778;0.258;2022-09-09T03:55:34;11.10;;;2.70;;
27422;SDS011;14878;50.778;0.258;2022-09-09T03:56:36;7.82;;;2.70;;
27422;SDS011;14878;50.778;0.258;2022-09-09T03:57:37;6.35;;;2.70;;
27422;SDS011;14878;50.778;0.258;2022-09-09T03:58:37;6.17;;;2.70;;
27422;SDS011;14878;50.778;0.258;2022-09-09T03:59:38;7.03;;;2.72;;
27422;SDS011;14878;50.778;0.258;2022-09-09T04:00:39;11.45;;;3.05;;
27422;SDS011;14878;50.778;0.258;2022-09-09T04:01:44;10.15;;;2.95;;
27422;SDS011;14878;50.778;0.258;2022-09-09T04:02:47;7.93;;;3.40;;
27422;SDS011;14878;50.778;0.258;2022-09-09T04:03:49;10.40;;;3.00;;
27422;SDS011;14878;50.778;0.258;2022-09-09T04:04:50;10.75;;;3.25;;
27422;SDS011;14878;50.778;0.258;2022-09-09T04:05:51;10.07;;;3.10;;
27422;SDS011;14878;50.778;0.258;2022-09-09T04:06:53;8.20;;;2.80;;
27422;SDS011;14878;50.778;0.258;2022-09-09T04:07:54;6.75;;;2.80;;
27422;SDS011;14878;50.778;0.258;2022-09-09T04:08:55;11.20;;;3.28;;
27422;SDS011;14878;50.778;0.258;2022-09-09T04:09:55;6.68;;;2.90;;
27422;SDS011;14878;50.778;0.258;2022-09-09T04:10:56;10.48;;;2.78;;
27422;SDS011;14878;50.778;0.258;2022-09-09T04:11:57;8.77;;;2.80;;
27422;SDS011;14878;50.778;0.258;2022-09-09T04:12:58;9.13;;;2.60;;
27422;SDS011;14878;50.778;0.258;2022-09-09T04:13:59;6.32;;;2.45;;
27422;SDS011;14878;50.778;0.258;2022-09-09T04:15:00;9.83;;;2.70;;
27422;SDS011;14878;50.778;0.258;2022-09-09T04:16:02;8.45;;;2.70;;
27422;SDS011;14878;50.778;0.258;2022-09-09T04:17:03;7.72;;;2.58;;
27422;SDS011;14878;50.778;0.258;2022-09-09T04:18:06;5.97;;;2.53;;
27422;SDS011;14878;50.778;0.258;2022-09-09T04:19:07;8.47;;;3.03;;
27422;SDS011;14878;50.778;0.258;2022-09-09T04:20:07;9.57;;;3.03;;
27422;SDS011;14878;50.778;0.258;2022-09-09T04:21:11;9.25;;;2.80;;
27422;SDS011;14878;50.778;0.258;2022-09-09T04:22:12;7.22;;;2.50;;
27422;SDS011;14878;50.778;0.258;2022-09-09T04:23:13;7.20;;;2.80;;
27422;SDS011;14878;50.778;0.258;2022-09-09T04:24:14;8.60;;;3.47;;
27422;SDS011;14878;50.778;0.258;2022-09-09T04:25:16;6.28;;;2.40;;
27422;SDS011;14878;50.778;0.258;2022-09-09T04:26:17;5.85;;;2.40;;
27422;SDS011;14878;50.778;0.258;2022-09-09T04:27:18;5.32;;;2.15;;
27422;SDS011;14878;50.778;0.258;2022-09-09T04:28:20;3.22;;;1.90;;
27422;SDS011;14878;50.778;0.258;2022-09-09T04:29:22;9.75;;;2.40;;
27422;SDS011;14878;50.778;0.258;2022-09-09T04:30:23;7.57;;;2.37;;
27422;SDS011;14878;50.778;0.258;2022-09-09T04:31:25;8.27;;;2.83;;
27422;SDS011;14878;50.778;0.258;2022-09-09T04:32:26;6.88;;;2.20;;
27422;SDS011;14878;50.778;0.258;2022-09-09T04:33:27;4.85;;;2.30;;
27422;SDS011;14878;50.778;0.258;2022-09-09T04:34:28;5.60;;;2.28;;
27422;SDS011;14878;50.778;0.258;2022-09-09T04:35:29;7.57;;;2.53;;
27422;SDS011;14878;50.778;0.258;2022-09-09T04:36:29;6.45;;;2.15;;
27422;SDS011;14878;50.778;0.258;2022-09-09T04:37:31;5.10;;;2.40;;
27422;SDS011;14878;50.778;0.258;2022-09-09T04:38:32;7.18;;;2.60;;
27422;SDS011;14878;50.778;0.258;2022-09-09T04:39:33;7.70;;;2.40;;
27422;SDS011;14878;50.778;0.258;2022-09-09T04:40:33;10.95;;;2.75;;
27422;SDS011;14878;50.778;0.258;2022-09-09T04:41:34;6.00;;;2.42;;
27422;SDS011;14878;50.778;0.258;2022-09-09T04:42:35;7.53;;;2.90;;
27422;SDS011;14878;50.778;0.258;2022-09-09T04:43:37;12.82;;;2.90;;
27422;SDS011;14878;50.778;0.258;2022-09-09T04:44:38;9.35;;;2.85;;
27422;SDS011;14878;50.778;0.258;2022-09-09T04:45:41;8.05;;;2.75;;
27422;SDS011;14878;50.778;0.258;2022-09-09T04:46:43;6.60;;;2.40;;
27422;SDS011;14878;50.778;0.258;2022-09-09T04:47:43;8.13;;;2.80;;
27422;SDS011;14878;50.778;0.258;2022-09-09T04:48:44;7.07;;;2.80;;
27422;SDS011;14878;50.778;0.258;2022-09-09T04:49:45;11.05;;;2.85;;
27422;SDS011;14878;50.778;0.258;2022-09-09T04:51:02;9.55;;;3.20;;
27422;SDS011;14878;50.778;0.258;2022-09-09T04:52:05;6.05;;;3.03;;
27422;SDS011;14878;50.778;0.258;2022-09-09T04:53:06;10.45;;;2.63;;
27422;SDS011;14878;50.778;0.258;2022-09-09T04:54:07;10.20;;;2.90;;
27422;SDS011;14878;50.778;0.258;2022-09-09T04:55:08;9.93;;;2.78;;
27422;SDS011;14878;50.778;0.258;2022-09-09T04:56:10;8.93;;;2.80;;
27422;SDS011;14878;50.778;0.258;2022-09-09T04:57:13;14.13;;;2.92;;
27422;SDS011;14878;50.778;0.258;2022-09-09T04:58:13;7.85;;;2.63;;
27422;SDS011;14878;50.778;0.258;2022-09-09T04:59:14;7.20;;;2.63;;
27422;SDS011;14878;50.778;0.258;2022-09-09T05:00:15;6.87;;;2.80;;
27422;SDS011;14878;50.778;0.258;2022-09-09T05:01:18;6.95;;;2.70;;
27422;SDS011;14878;50.778;0.258;2022-09-09T05:02:20;6.85;;;2.70;;
27422;SDS011;14878;50.778;0.258;2022-09-09T05:03:20;9.93;;;2.97;;
27422;SDS011;14878;50.778;0.258;2022-09-09T05:04:21;8.13;;;2.90;;
27422;SDS011;14878;50.778;0.258;2022-09-09T05:05:22;7.25;;;3.00;;
27422;SDS011;14878;50.778;0.258;2022-09-09T05:06:23;5.93;;;2.50;;
27422;SDS011;14878;50.778;0.258;2022-09-09T05:07:24;7.73;;;3.07;;
27422;SDS011;14878;50.778;0.258;2022-09-09T05:08:27;12.93;;;2.95;;
27422;SDS011;14878;50.778;0.258;2022-09-09T05:09:28;9.97;;;3.63;;
27422;SDS011;14878;50.778;0.258;2022-09-09T05:10:29;8.32;;;2.95;;
27422;SDS011;14878;50.778;0.258;2022-09-09T05:11:30;11.07;;;3.20;;
27422;SDS011;14878;50.778;0.258;2022-09-09T05:12:32;7.63;;;2.67;;
27422;SDS011;14878;50.778;0.258;2022-09-09T05:13:33;6.75;;;2.85;;
27422;SDS011;14878;50.778;0.258;2022-09-09T05:14:33;14.48;;;3.55;;
27422;SDS011;14878;50.778;0.258;2022-09-09T05:15:37;8.25;;;3.00;;
27422;SDS011;14878;50.778;0.258;2022-09-09T05:16:37;8.70;;;3.40;;
27422;SDS011;14878;50.778;0.258;2022-09-09T05:17:39;7.47;;;3.00;;
27422;SDS011;14878;50.778;0.258;2022-09-09T05:18:40;9.40;;;3.05;;
27422;SDS011;14878;50.778;0.258;2022-09-09T05:19:42;7.90;;;2.90;;
27422;SDS011;14878;50.778;0.258;2022-09-09T05:20:44;6.07;;;3.03;;
27422;SDS011;14878;50.778;0.258;2022-09-09T05:21:45;9.52;;;3.03;;
27422;SDS011;14878;50.778;0.258;2022-09-09T05:22:46;4.70;;;2.55;;
27422;SDS011;14878;50.778;0.258;2022-09-09T05:23:46;8.87;;;3.17;;
27422;SDS011;14878;50.778;0.258;2022-09-09T05:24:47;7.10;;;2.80;;
27422;SDS011;14878;50.778;0.258;2022-09-09T05:25:57;9.80;;;3.47;;
27422;SDS011;14878;50.778;0.258;2022-09-09T05:26:58;8.55;;;3.08;;
27422;SDS011;14878;50.778;0.258;2022-09-09T05:28:01;11.35;;;3.55;;
27422;SDS011;14878;50.778;0.258;2022-09-09T05:29:02;7.37;;;2.93;;
27422;SDS011;14878;50.778;0.258;2022-09-09T05:30:03;6.72;;;2.70;;
27422;SDS011;14878;50.778;0.258;2022-09-09T05:31:05;7.95;;;2.90;;
27422;SDS011;14878;50.778;0.258;2022-09-09T05:32:12;8.82;;;3.13;;
27422;SDS011;14878;50.778;0.258;2022-09-09T05:33:15;9.40;;;2.70;;
27422;SDS011;14878;50.778;0.258;2022-09-09T05:34:15;7.53;;;2.80;;
27422;SDS011;14878;50.778;0.258;2022-09-09T05:35:16;7.67;;;3.00;;
27422;SDS011;14878;50.778;0.258;2022-09-09T05:36:20;6.18;;;2.80;;
27422;SDS011;14878;50.778;0.258;2022-09-09T05:37:21;7.60;;;3.03;;
27422;SDS011;14878;50.778;0.258;2022-09-09T05:38:23;12.57;;;3.17;;
27422;SDS011;14878;50.778;0.258;2022-09-09T05:39:25;7.43;;;2.85;;
27422;SDS011;14878;50.778;0.258;2022-09-09T05:40:25;8.77;;;3.50;;
27422;SDS011;14878;50.778;0.258;2022-09-09T05:41:26;8.48;;;3.22;;
27422;SDS011;14878;50.778;0.258;2022-09-09T05:42:29;8.68;;;2.95;;
27422;SDS011;14878;50.778;0.258;2022-09-09T05:43:31;7.90;;;3.33;;
27422;SDS011;14878;50.778;0.258;2022-09-09T05:44:32;8.88;;;3.45;;
27422;SDS011;14878;50.778;0.258;2022-09-09T05:45:33;8.82;;;3.35;;
27422;SDS011;14878;50.778;0.258;2022-09-09T05:46:34;8.80;;;3.10;;
27422;SDS011;14878;50.778;0.258;2022-09-09T05:47:35;9.43;;;3.22;;
27422;SDS011;14878;50.778;0.258;2022-09-09T05:48:38;8.45;;;3.30;;
27422;SDS011;14878;50.778;0.258;2022-09-09T05:49:43;8.60;;;3.63;;
27422;SDS011;14878;50.778;0.258;2022-09-09T05:50:52;9.10;;;3.40;;
27422;SDS011;14878;50.778;0.258;2022-09-09T05:51:54;7.15;;;3.72;;
27422;SDS011;14878;50.778;0.258;2022-09-09T05:52:55;7.95;;;3.22;;
27422;SDS011;14878;50.778;0.258;2022-09-09T05:53:55;11.27;;;3.50;;
27422;SDS011;14878;50.778;0.258;2022-09-09T05:55:00;9.70;;;3.45;;
27422;SDS011;14878;50.778;0.258;2022-09-09T05:56:11;7.43;;;3.80;;
27422;SDS011;14878;50.778;0.258;2022-09-09T05:57:16;8.50;;;3.58;;
27422;SDS011;14878;50.778;0.258;2022-09-09T05:58:17;8.17;;;3.40;;
27422;SDS011;14878;50.778;0.258;2022-09-09T05:59:18;8.07;;;3.45;;
27422;SDS011;14878;50.778;0.258;2022-09-09T06:00:19;7.95;;;3.63;;
27422;SDS011;14878;50.778;0.258;2022-09-09T06:01:22;11.50;;;3.42;;
27422;SDS011;14878;50.778;0.258;2022-09-09T06:02:26;7.32;;;3.25;;
27422;SDS011;14878;50.778;0.258;2022-09-09T06:03:27;10.00;;;4.05;;
27422;SDS011;14878;50.778;0.258;2022-09-09T06:04:27;9.45;;;3.70;;
27422;SDS011;14878;50.778;0.258;2022-09-09T06:05:28;10.10;;;3.60;;
27422;SDS011;14878;50.778;0.258;2022-09-09T06:06:31;9.32;;;3.90;;
27422;SDS011;14878;50.778;0.258;2022-09-09T06:07:36;7.60;;;3.58;;
27422;SDS011;14878;50.778;0.258;2022-09-09T06:08:38;10.02;;;3.70;;
27422;SDS011;14878;50.778;0.258;2022-09-09T06:09:41;9.88;;;3.83;;
27422;SDS011;14878;50.778;0.258;2022-09-09T06:10:42;11.55;;;3.70;;
27422;SDS011;14878;50.778;0.258;2022-09-09T06:11:43;8.93;;;4.05;;
27422;SDS011;14878;50.778;0.258;2022-09-09T06:12:45;9.35;;;3.50;;
27422;SDS011;14878;50.778;0.258;2022-09-09T06:13:46;8.25;;;3.80;;
27422;SDS011;14878;50.778;0.258;2022-09-09T06:14:47;6.35;;;3.72;;
27422;SDS011;14878;50.778;0.258;2022-09-09T06:15:51;9.45;;;3.63;;
27422;SDS011;14878;50.778;0.258;2022-09-09T06:16:52;10.30;;;3.83;;
27422;SDS011;14878;50.778;0.258;2022-09-09T06:17:56;9.93;;;3.92;;
27422;SDS011;14878;50.778;0.258;2022-09-09T06:18:57;8.50;;;4.15;;
27422;SDS011;14878;50.778;0.258;2022-09-09T06:19:58;9.60;;;3.75;;
27422;SDS011;14878;50.778;0.258;2022-09-09T06:21:03;9.93;;;4.15;;
27422;SDS011;14878;50.778;0.258;2022-09-09T06:22:06;14.00;;;4.75;;
27422;SDS011;14878;50.778;0.258;2022-09-09T06:23:07;9.27;;;3.80;;
27422;SDS011;14878;50.778;0.258;2022-09-09T06:24:08;14.65;;;4.22;;
27422;SDS011;14878;50.778;0.258;2022-09-09T06:25:08;9.93;;;4.10;;
27422;SDS011;14878;50.778;0.258;2022-09-09T06:27:42;12.65;;;4.47;;
27422;SDS011;14878;50.778;0.258;2022-09-09T06:28:49;10.07;;;4.07;;
27422;SDS011;14878;50.778;0.258;2022-09-09T06:29:52;10.15;;;4.65;;
27422;SDS011;14878;50.778;0.258;2022-09-09T06:31:03;11.67;;;4.07;;
27422;SDS011;14878;50.778;0.258;2022-09-09T06:32:07;12.32;;;4.50;;
27422;SDS011;14878;50.778;0.258;2022-09-09T06:33:08;11.20;;;4.38;;
27422;SDS011;14878;50.778;0.258;2022-09-09T06:34:09;8.70;;;3.78;;
27422;SDS011;14878;50.778;0.258;2022-09-09T06:35:10;8.75;;;3.70;;
27422;SDS011;14878;50.778;0.258;2022-09-09T06:36:12;7.57;;;3.53;;
27422;SDS011;14878;50.778;0.258;2022-09-09T06:37:18;6.65;;;3.90;;
27422;SDS011;14878;50.778;0.258;2022-09-09T06:38:18;11.55;;;4.00;;
27422;SDS011;14878;50.778;0.258;2022-09-09T06:39:19;7.70;;;3.50;;
27422;SDS011;14878;50.778;0.258;2022-09-09T06:40:21;16.60;;;4.30;;
27422;SDS011;14878;50.778;0.258;2022-09-09T06:41:23;11.40;;;3.88;;
27422;SDS011;14878;50.778;0.258;2022-09-09T06:42:26;7.70;;;3.67;;
27422;SDS011;14878;50.778;0.258;2022-09-09T06:43:27;9.43;;;3.80;;
27422;SDS011;14878;50.778;0.258;2022-09-09T06:44:28;5.95;;;3.30;;
27422;SDS011;14878;50.778;0.258;2022-09-09T06:45:33;9.38;;;3.47;;
27422;SDS011;14878;50.778;0.258;2022-09-09T06:46:36;7.88;;;3.58;;
27422;SDS011;14878;50.778;0.258;2022-09-09T06:47:38;7.40;;;3.47;;
27422;SDS011;14878;50.778;0.258;2022-09-09T06:48:39;7.88;;;3.65;;
27422;SDS011;14878;50.778;0.258;2022-09-09T06:49:44;6.28;;;3.33;;
27422;SDS011;14878;50.778;0.258;2022-09-09T06:50:45;10.80;;;4.03;;
27422;SDS011;14878;50.778;0.258;2022-09-09T06:51:47;10.10;;;3.50;;
27422;SDS011;14878;50.778;0.258;2022-09-09T06:52:48;8.85;;;3.60;;
27422;SDS011;14878;50.778;0.258;2022-09-09T06:53:52;8.85;;;3.75;;
27422;SDS011;14878;50.778;0.258;2022-09-09T06:54:54;9.77;;;3.85;;
27422;SDS011;14878;50.778;0.258;2022-09-09T06:55:55;6.77;;;3.70;;
27422;SDS011;14878;50.778;0.258;2022-09-09T06:56:56;10.93;;;4.20;;
27422;SDS011;14878;50.778;0.258;2022-09-09T06:57:57;10.02;;;4.07;;
27422;SDS011;14878;50.778;0.258;2022-09-09T06:58:59;9.23;;;4.15;;
27422;SDS011;14878;50.778;0.258;2022-09-09T07:00:04;7.60;;;3.97;;
27422;SDS011;14878;50.778;0.258;2022-09-09T07:01:06;9.07;;;3.70;;
27422;SDS011;14878;50.778;0.258;2022-09-09T07:02:07;6.97;;;3.42;;
27422;SDS011;14878;50.778;0.258;2022-09-09T07:03:09;9.10;;;3.75;;